Time;durP1;ratioP1;P1;durP2;ratioP2;P2;SDS_P1;SDS_P2;PMS_P1;PMS_P2;Temp;Humidity;BMP_temperature;BMP_pressure;BME280_temperature;BME280_humidity;BME280_pressure;Samples;Min_cycle;Max_cycle;Signal;HPM_P1;HPM_P2
2022/03/09 00:02:03;;;;;;;;;;;;;;;1.17;100.00;102027.66;5038688;28;19970;-79
2022/03/09 00:04:31;;;;;;;;;;;;;;;1.10;100.00;102023.56;5038112;28;19925;-79
2022/03/09 00:07:08;;;;;;;;;;;;;;;1.07;100.00;102026.81;5051089;28;20074;-79
2022/03/09 00:09:34;;;;;;;;;;;;;;;1.11;100.00;102020.22;5017631;28;19925;-78
2022/03/09 00:12:02;;;;;;;;;;;;;;;1.12;100.00;102031.50;5005204;28;19929;-79
2022/03/09 00:14:29;;;;;;;;;;;;;;;1.17;100.00;102027.66;5027644;28;19932;-78
2022/03/09 00:16:54;;;;;;;;;;;;;;;1.17;100.00;102040.66;5035434;28;20016;-79
2022/03/09 00:19:20;;;;;;;;;;;;;;;1.14;100.00;102040.34;5035609;28;19961;-79
2022/03/09 00:21:49;;;;;;;;;;;;;;;1.08;100.00;102049.38;5019160;28;20436;-81
2022/03/09 00:24:17;;;;;;;;;;;;;;;1.04;100.00;102052.47;5036426;28;19922;-79
2022/03/09 00:26:43;;;;;;;;;;;;;;;1.03;100.00;102049.75;5019430;28;19921;-79
2022/03/09 00:29:08;;;;;;;;;;;;;;;0.98;100.00;102058.75;5035288;28;19952;-78
2022/03/09 00:31:34;;;;;;;;;;;;;;;1.03;100.00;102053.22;5019067;28;19953;-78
2022/03/09 00:33:59;;;;;;;;;;;;;;;1.08;100.00;102051.97;5033962;28;19960;-79
2022/03/09 00:36:24;;;;;;;;;;;;;;;0.98;100.00;102057.09;5035321;28;19979;-79
2022/03/09 00:38:51;;;;;;;;;;;;;;;0.94;100.00;102054.97;5018272;28;19922;-78
2022/03/09 00:41:17;;;;;;;;;;;;;;;0.99;100.00;102056.28;5034936;28;19975;-81
2022/03/09 00:43:46;;;;;;;;;;;;;;;0.97;100.00;102055.25;5051485;28;20007;-80
2022/03/09 00:46:15;;;;;;;;;;;;;;;0.99;100.00;102061.47;5051010;28;20269;-77
2022/03/09 00:48:41;;;;;;;;;;;;;;;1.07;100.00;102065.72;5018080;28;19921;-80
2022/03/09 00:51:07;;;;;;;;;;;;;;;1.08;100.00;102069.22;5018005;28;20007;-79
2022/03/09 00:53:39;;;;;;;;;;;;;;;1.07;100.00;102075.19;5026745;28;20273;-79
2022/03/09 00:56:08;;;;;;;;;;;;;;;0.99;100.00;102069.25;5018351;28;19921;-78
2022/03/09 00:58:34;;;;;;;;;;;;;;;0.99;100.00;102076.16;5019189;28;19921;-79
2022/03/09 01:00:59;;;;;;;;;;;;;;;1.01;100.00;102069.41;5018032;28;20512;-80
2022/03/09 01:03:25;;;;;;;;;;;;;;;1.00;100.00;102076.28;5046506;28;19921;-78
2022/03/09 01:05:51;;;;;;;;;;;;;;;1.01;100.00;102067.75;5033681;28;19981;-79
2022/03/09 01:08:16;;;;;;;;;;;;;;;0.95;100.00;102066.25;5017993;28;19925;-79
2022/03/09 01:10:42;;;;;;;;;;;;;;;0.94;100.00;102070.53;5001724;28;19932;-77
2022/03/09 01:13:10;;;;;;;;;;;;;;;0.94;100.00;102070.53;5017143;28;19929;-76
2022/03/09 01:15:35;;;;;;;;;;;;;;;0.88;100.00;102065.66;5017250;28;19930;-79
2022/03/09 01:18:02;;;;;;;;;;;;;;;0.88;100.00;102056.97;5036110;28;20297;-80
2022/03/09 01:20:28;;;;;;;;;;;;;;;0.92;100.00;102063.34;5021160;28;20436;-78
2022/03/09 01:22:55;;;;;;;;;;;;;;;0.92;100.00;102060.75;5022965;28;20012;-78
2022/03/09 01:25:21;;;;;;;;;;;;;;;0.82;100.00;102062.50;5016835;28;19960;-80
2022/03/09 01:27:48;;;;;;;;;;;;;;;0.78;100.00;102067.25;5018006;28;19928;-78
2022/03/09 01:30:14;;;;;;;;;;;;;;;0.70;100.00;102067.44;5033935;28;20289;-79
2022/03/09 01:32:40;;;;;;;;;;;;;;;0.73;100.00;102068.50;5017593;28;19921;-79
2022/03/09 01:35:08;;;;;;;;;;;;;;;0.70;100.00;102074.31;5049184;28;19928;-78
2022/03/09 01:37:33;;;;;;;;;;;;;;;0.70;100.00;102067.44;5017308;28;19928;-79
2022/03/09 01:40:00;;;;;;;;;;;;;;;0.74;100.00;102062.56;5000892;28;19933;-80
2022/03/09 01:42:28;;;;;;;;;;;;;;;0.68;100.00;102069.00;5050372;28;19921;-80
2022/03/09 01:44:53;;;;;;;;;;;;;;;0.67;100.00;102074.94;5050415;28;19921;-81
2022/03/09 01:47:21;;;;;;;;;;;;;;;0.56;100.00;102069.47;5049919;28;20537;-78
2022/03/09 01:49:46;;;;;;;;;;;;;;;0.55;100.00;102071.16;5033715;28;20374;-77
2022/03/09 01:52:13;;;;;;;;;;;;;;;0.47;100.00;102062.66;5033059;28;20012;-79
2022/03/09 01:54:40;;;;;;;;;;;;;;;0.46;100.00;102057.31;5034170;28;19962;-78
2022/03/09 01:57:07;;;;;;;;;;;;;;;0.50;100.00;102052.59;5034546;28;19921;-80
2022/03/09 01:59:34;;;;;;;;;;;;;;;0.50;100.00;102051.69;5034540;28;19928;-79
2022/03/09 02:02:00;;;;;;;;;;;;;;;0.53;100.00;102050.28;5016397;28;19929;-80
2022/03/09 02:04:27;;;;;;;;;;;;;;;0.52;100.00;102044.97;5033630;28;19925;-80
2022/03/09 02:06:55;;;;;;;;;;;;;;;0.43;100.00;102044.97;5034264;28;19920;-77
2022/03/09 02:12:05;;;;;;;;;;;;;;;0.46;100.00;102036.59;5036327;28;19947;-78
2022/03/09 02:14:44;;;;;;;;;;;;;;;0.46;100.00;102047.88;5033814;28;20350;-77
2022/03/09 02:17:17;;;;;;;;;;;;;;;0.37;100.00;102040.91;5049451;28;19925;-78
2022/03/09 02:19:45;;;;;;;;;;;;;;;0.34;100.00;102041.50;5050665;28;20022;-80
2022/03/09 02:22:26;;;;;;;;;;;;;;;0.28;100.00;102035.72;5024649;28;19921;-82
2022/03/09 02:24:52;;;;;;;;;;;;;;;0.26;100.00;102038.16;5016728;28;19928;-80
2022/03/09 02:27:20;;;;;;;;;;;;;;;0.33;100.00;102035.41;5016380;28;19933;-79
2022/03/09 02:29:48;;;;;;;;;;;;;;;0.34;100.00;102033.72;5022798;28;20349;-81
2022/03/09 02:32:14;;;;;;;;;;;;;;;0.31;100.00;102042.13;5025091;28;19921;-79
2022/03/09 02:34:46;;;;;;;;;;;;;;;0.25;100.00;102036.38;5016598;28;20244;-79
2022/03/09 02:37:12;;;;;;;;;;;;;;;0.22;100.00;102041.25;5002143;28;19964;-78
2022/03/09 02:39:38;;;;;;;;;;;;;;;0.21;100.00;102052.38;5039021;28;19921;-80
2022/03/09 02:42:10;;;;;;;;;;;;;;;0.19;100.00;102038.38;5020749;28;19921;-79
2022/03/09 02:44:36;;;;;;;;;;;;;;;0.18;100.00;102042.63;5031270;28;19921;-80
2022/03/09 02:47:03;;;;;;;;;;;;;;;0.14;100.00;102047.34;5021827;28;19921;-78
2022/03/09 02:49:29;;;;;;;;;;;;;;;0.15;100.00;102039.72;5041299;28;19959;-79
2022/03/09 02:51:54;;;;;;;;;;;;;;;0.18;100.00;102044.31;5020972;28;19925;-78
2022/03/09 02:54:21;;;;;;;;;;;;;;;0.15;100.00;102044.00;5020850;28;19921;-81
2022/03/09 02:56:46;;;;;;;;;;;;;;;0.19;100.00;102046.13;5025146;28;19920;-77
2022/03/09 02:59:12;;;;;;;;;;;;;;;0.16;100.00;102045.84;4992611;28;19936;-81
2022/03/09 03:01:38;;;;;;;;;;;;;;;0.12;100.00;102038.53;5037994;28;19936;-81
2022/03/09 03:04:05;;;;;;;;;;;;;;;0.11;100.00;102032.44;5020395;28;20365;-80
2022/03/09 03:06:34;;;;;;;;;;;;;;;0.15;100.00;102038.81;5020990;28;20016;-76
2022/03/09 03:09:00;;;;;;;;;;;;;;;0.12;100.00;102028.16;5039453;28;19977;-79
2022/03/09 03:11:25;;;;;;;;;;;;;;;0.15;100.00;102028.47;5021393;28;20338;-79
2022/03/09 03:13:50;;;;;;;;;;;;;;;0.25;100.00;102036.38;5020767;28;20380;-80
2022/03/09 03:16:16;;;;;;;;;;;;;;;0.21;100.00;102023.88;5039126;28;19936;-80
2022/03/09 03:18:43;;;;;;;;;;;;;;;0.18;100.00;102031.34;5037902;28;19921;-80
2022/03/09 03:21:09;;;;;;;;;;;;;;;0.10;100.00;102033.19;5011515;28;19922;-77
2022/03/09 03:23:38;;;;;;;;;;;;;;;0.10;100.00;102034.88;5025725;28;20014;-76
2022/03/09 03:26:08;;;;;;;;;;;;;;;0.17;100.00;102024.34;5002551;28;19925;-80
2022/03/09 03:28:33;;;;;;;;;;;;;;;0.10;100.00;102028.03;5020107;28;19964;-80
2022/03/09 03:31:00;;;;;;;;;;;;;;;0.10;100.00;102029.72;5006348;28;19975;-77
2022/03/09 03:33:30;;;;;;;;;;;;;;;0.14;100.00;102037.00;5020043;28;20304;-80
2022/03/09 03:35:55;;;;;;;;;;;;;;;0.12;100.00;102025.56;5020059;28;20003;-80
2022/03/09 03:38:38;;;;;;;;;;;;;;;0.08;100.00;102031.22;5042080;28;19985;-80
2022/03/09 03:41:03;;;;;;;;;;;;;;;-0.01;100.00;102032.16;5040598;28;19925;-80
2022/03/09 03:43:32;;;;;;;;;;;;;;;-0.07;100.00;102025.47;5052778;28;19987;-80
2022/03/09 03:45:57;;;;;;;;;;;;;;;-0.21;100.00;102031.91;5019435;28;19921;-76
2022/03/09 03:48:23;;;;;;;;;;;;;;;-0.25;100.00;102027.16;5018380;28;19928;-80
2022/03/09 03:50:50;;;;;;;;;;;;;;;-0.28;100.00;102024.28;5023171;28;19924;-79
2022/03/09 03:53:19;;;;;;;;;;;;;;;-0.30;100.00;102021.53;5029457;28;19917;-77
2022/03/09 03:55:45;;;;;;;;;;;;;;;-0.26;100.00;102025.38;5036871;28;19921;-80
2022/03/09 03:58:10;;;;;;;;;;;;;;;-0.29;100.00;102019.88;5029058;28;19971;-79
2022/03/09 04:00:36;;;;;;;;;;;;;;;-0.35;100.00;102021.88;5018936;28;19932;-80
2022/03/09 04:03:06;;;;;;;;;;;;;;;-0.39;100.00;102023.22;5052093;28;19929;-80
2022/03/09 04:05:32;;;;;;;;;;;;;;;-0.42;100.00;102025.50;5036794;28;20345;-80
2022/03/09 04:07:58;;;;;;;;;;;;;;;-0.42;100.00;102026.44;5019431;28;19921;-79
2022/03/09 04:10:23;;;;;;;;;;;;;;;-0.42;100.00;102025.50;5026140;28;19960;-79
2022/03/09 04:12:51;;;;;;;;;;;;;;;-0.46;100.00;102034.66;5038703;28;19929;-80
2022/03/09 04:15:16;;;;;;;;;;;;;;;-0.48;100.00;102024.91;5022590;28;20760;-80
2022/03/09 04:17:46;;;;;;;;;;;;;;;-0.43;100.00;102024.59;5038775;28;19921;-80
2022/03/09 04:20:13;;;;;;;;;;;;;;;-0.41;100.00;102023.06;5015501;28;19924;-80
2022/03/09 04:22:58;;;;;;;;;;;;;;;-0.50;100.00;102014.41;5034658;28;20014;-78
2022/03/09 04:25:26;;;;;;;;;;;;;;;-0.44;100.00;102017.59;5018933;28;19937;-79
2022/03/09 04:27:51;;;;;;;;;;;;;;;-0.55;100.00;102011.34;5037331;28;19921;-77
2022/03/09 04:30:17;;;;;;;;;;;;;;;-0.49;100.00;102013.66;5018733;28;19928;-79
2022/03/09 04:32:52;;;;;;;;;;;;;;;-0.44;100.00;102004.66;5036831;28;20003;-80
2022/03/09 04:35:17;;;;;;;;;;;;;;;-0.51;100.00;102007.41;5051628;28;20350;-80
2022/03/09 04:37:43;;;;;;;;;;;;;;;-0.50;100.00;102006.63;5044907;28;19925;-77
2022/03/09 04:40:09;;;;;;;;;;;;;;;-0.49;100.00;102018.81;5035220;28;19983;-79
2022/03/09 04:42:36;;;;;;;;;;;;;;;-0.59;100.00;102024.78;5045600;28;20011;-79
2022/03/09 04:45:01;;;;;;;;;;;;;;;-0.61;100.00;102017.59;5037756;28;19987;-80
2022/03/09 04:47:26;;;;;;;;;;;;;;;-0.66;100.00;102021.41;5015885;28;20370;-78
2022/03/09 04:49:54;;;;;;;;;;;;;;;-0.74;100.00;102020.66;5035646;28;19921;-81
2022/03/09 04:52:28;;;;;;;;;;;;;;;-0.85;100.00;102017.00;5045040;28;19921;-78
2022/03/09 04:54:54;;;;;;;;;;;;;;;-0.69;100.00;102023.69;5019861;28;19928;-79
2022/03/09 04:57:20;;;;;;;;;;;;;;;-0.70;100.00;102019.28;5034017;28;19920;-76
2022/03/09 04:59:46;;;;;;;;;;;;;;;-0.78;100.00;102018.50;5038737;28;20372;-77
2022/03/09 05:02:14;;;;;;;;;;;;;;;-0.80;100.00;102028.69;5038584;28;19951;-76
2022/03/09 05:04:40;;;;;;;;;;;;;;;-0.67;100.00;102023.06;5054607;28;20254;-79
2022/03/09 05:07:09;;;;;;;;;;;;;;;-0.69;100.00;102027.19;5038596;28;19928;-81
2022/03/09 05:09:36;;;;;;;;;;;;;;;-0.78;100.00;102032.38;5021849;28;19921;-80
2022/03/09 05:12:02;;;;;;;;;;;;;;;-0.79;100.00;102027.03;5015056;28;20273;-81
2022/03/09 05:14:27;;;;;;;;;;;;;;;-0.95;100.00;102034.91;5002027;28;19925;-82
2022/03/09 05:16:55;;;;;;;;;;;;;;;-0.96;100.00;102027.94;5017785;28;20251;-81
2022/03/09 05:19:26;;;;;;;;;;;;;;;-0.77;100.00;102036.78;5016548;28;19968;-81
2022/03/09 05:21:58;;;;;;;;;;;;;;;-0.73;100.00;102038.91;5050787;28;19925;-81
2022/03/09 05:24:36;;;;;;;;;;;;;;;-0.80;100.00;102036.47;5042378;28;19921;-83
2022/03/09 05:27:03;;;;;;;;;;;;;;;-0.88;100.00;102029.63;5051335;28;19925;-80
2022/03/09 05:29:32;;;;;;;;;;;;;;;-0.83;100.00;102030.97;5017788;28;20007;-81
2022/03/09 05:31:57;;;;;;;;;;;;;;;-0.86;100.00;102033.25;5033737;28;19925;-80
2022/03/09 05:34:24;;;;;;;;;;;;;;;-0.97;100.00;102027.00;5034197;28;19921;-81
2022/03/09 05:36:50;;;;;;;;;;;;;;;-1.03;100.00;102028.97;5048818;28;20377;-81
2022/03/09 05:39:20;;;;;;;;;;;;;;;-1.15;100.00;102026.06;5017279;28;19928;-81
2022/03/09 05:42:06;;;;;;;;;;;;;;;-1.19;100.00;102034.25;5017021;28;20052;-78
2022/03/09 05:44:31;;;;;;;;;;;;;;;-1.27;100.00;102036.06;5016270;28;19921;-80
2022/03/09 05:47:17;;;;;;;;;;;;;;;-1.34;100.00;102043.94;5015109;28;19932;-80
2022/03/09 05:49:48;;;;;;;;;;;;;;;-1.40;100.00;102047.56;5035042;28;19957;-80
2022/03/09 05:52:20;;;;;;;;;;;;;;;-1.40;100.00;102047.56;5034477;28;20361;-80
2022/03/09 05:54:46;;;;;;;;;;;;;;;-1.43;100.00;102049.84;5017106;28;20345;-79
2022/03/09 05:57:18;;;;;;;;;;;;;;;-1.39;100.00;102047.72;5020059;28;19955;-80
2022/03/09 06:00:07;;;;;;;;;;;;;;;-1.21;100.00;102053.88;5016784;28;20290;-79
2022/03/09 06:02:38;;;;;;;;;;;;;;;-1.28;100.00;102057.47;5016846;28;19967;-81
2022/03/09 06:05:08;;;;;;;;;;;;;;;-1.31;100.00;102054.59;5020701;28;20007;-79
2022/03/09 06:07:35;;;;;;;;;;;;;;;-1.33;100.00;102066.44;5015969;28;20650;-78
2022/03/09 06:10:25;;;;;;;;;;;;;;;-1.31;100.00;102064.00;5022902;28;19944;-79
2022/03/09 06:13:00;;;;;;;;;;;;;;;-1.23;100.00;102063.13;5036089;28;19928;-80
2022/03/09 06:15:40;;;;;;;;;;;;;;;-1.15;100.00;102067.44;5027896;28;19929;-79
2022/03/09 06:18:06;;;;;;;;;;;;;;;-1.17;100.00;102062.84;5028502;28;19968;-80
2022/03/09 06:20:35;;;;;;;;;;;;;;;-1.11;100.00;102066.97;5034244;28;19921;-79
2022/03/09 06:23:05;;;;;;;;;;;;;;;-1.06;100.00;102051.03;5034375;28;19929;-81
2022/03/09 06:25:52;;;;;;;;;;;;;;;-1.00;100.00;102051.66;5044329;28;19970;-79
2022/03/09 06:28:22;;;;;;;;;;;;;;;-0.99;100.00;102056.06;5029587;28;20044;-78
2022/03/09 06:31:11;;;;;;;;;;;;;;;-0.93;100.00;102057.59;5009049;28;19932;-79
2022/03/09 06:33:37;;;;;;;;;;;;;;;-0.88;100.00;102060.66;5032809;28;19921;-78
2022/03/09 06:36:08;;;;;;;;;;;;;;;-0.86;100.00;102068.56;5033653;28;19964;-79
2022/03/09 06:38:41;;;;;;;;;;;;;;;-0.83;100.00;102068.88;5067438;28;19925;-81
2022/03/09 06:41:07;;;;;;;;;;;;;;;-0.77;100.00;102070.38;5013046;28;19968;-79
2022/03/09 06:43:42;;;;;;;;;;;;;;;-0.58;100.00;102067.97;5014552;28;19921;-79
2022/03/09 06:46:12;;;;;;;;;;;;;;;-0.46;100.00;102068.28;5015125;28;19921;-79
2022/03/09 06:49:07;;;;;;;;;;;;;;;-0.13;100.00;102082.75;5033819;28;19936;-79
2022/03/09 06:51:55;;;;;;;;;;;;;;;0.18;100.00;102071.09;5034304;28;19967;-78
2022/03/09 06:54:45;;;;;;;;;;;;;;;0.44;100.00;102082.19;5016217;28;19921;-80
2022/03/09 06:57:12;;;;;;;;;;;;;;;0.51;100.00;102080.34;5014722;28;20430;-79
2022/03/09 06:59:53;;;;;;;;;;;;;;;0.75;100.00;102082.53;5033437;28;19921;-79
2022/03/09 07:02:36;;;;;;;;;;;;;;;0.59;100.00;102086.25;5030683;28;19925;-78
2022/03/09 07:05:02;;;;;;;;;;;;;;;0.46;100.00;102083.25;5049248;28;20012;-79
2022/03/09 07:07:28;;;;;;;;;;;;;;;0.28;100.00;102088.47;5016230;28;20378;-78
2022/03/09 07:09:54;;;;;;;;;;;;;;;0.31;100.00;102090.44;5034802;28;19931;-79
2022/03/09 07:12:19;;;;;;;;;;;;;;;0.34;100.00;102093.31;5015083;28;20023;-78
2022/03/09 07:14:49;;;;;;;;;;;;;;;0.69;100.00;102083.75;5033867;28;20376;-76
2022/03/09 07:17:21;;;;;;;;;;;;;;;0.61;100.00;102094.19;5033125;28;19924;-79
2022/03/09 07:19:47;;;;;;;;;;;;;;;0.57;100.00;102095.53;5032067;28;19928;-78
2022/03/09 07:22:16;;;;;;;;;;;;;;;0.60;100.00;102101.03;5020196;28;19925;-77
2022/03/09 07:24:44;;;;;;;;;;;;;;;0.60;100.00;102106.22;5035927;28;20078;-78
2022/03/09 07:27:14;;;;;;;;;;;;;;;0.75;100.00;102105.88;5046505;28;19921;-78
2022/03/09 07:30:14;;;;;;;;;;;;;;;1.04;100.00;102109.53;5050434;28;19925;-79
2022/03/09 07:32:44;;;;;;;;;;;;;;;1.61;100.00;102113.91;5023051;28;19978;-79
2022/03/09 07:35:33;;;;;;;;;;;;;;;1.71;100.00;102113.06;5045594;28;19921;-79
2022/03/09 07:38:26;;;;;;;;;;;;;;;1.85;100.00;102114.31;5046182;28;19921;-80
2022/03/09 07:41:18;;;;;;;;;;;;;;;1.79;100.00;102112.09;5037910;28;19916;-80
2022/03/09 07:44:26;;;;;;;;;;;;;;;1.74;100.00;102122.06;5042555;28;19927;-80
2022/03/09 07:47:00;;;;;;;;;;;;;;;1.73;100.00;102116.72;5051424;28;19929;-79
2022/03/09 07:49:25;;;;;;;;;;;;;;;2.06;100.00;102117.97;5038119;28;19970;-79
2022/03/09 07:51:56;;;;;;;;;;;;;;;2.07;100.00;102120.72;5019500;28;19925;-79
2022/03/09 07:55:04;;;;;;;;;;;;;;;2.30;100.00;102119.25;5039063;28;20055;-78
2022/03/09 07:57:52;;;;;;;;;;;;;;;2.44;100.00;102116.22;5040052;28;19931;-80
2022/03/09 08:00:24;;;;;;;;;;;;;;;2.44;100.00;102117.88;5051857;28;19963;-79
2022/03/09 08:03:13;;;;;;;;;;;;;;;2.63;100.00;102120.44;5045395;28;19929;-79
2022/03/09 08:05:43;;;;;;;;;;;;;;;3.03;100.00;102127.44;5052113;28;19996;-80
2022/03/09 08:08:35;;;;;;;;;;;;;;;3.46;100.00;102116.28;5044235;28;19921;-78
2022/03/09 08:11:45;;;;;;;;;;;;;;;3.89;100.00;102132.91;5038476;28;19925;-79
2022/03/09 08:14:32;;;;;;;;;;;;;;;4.44;100.00;102137.47;5015080;28;19975;-80
2022/03/09 08:17:45;;;;;;;;;;;;;;;4.62;100.00;102139.75;5045280;28;20254;-81
2022/03/09 08:20:41;;;;;;;;;;;;;;;4.85;100.00;102137.28;5030339;28;20290;-78
2022/03/09 08:23:18;;;;;;;;;;;;;;;5.05;100.00;102137.94;5035927;28;20002;-78
2022/03/09 08:25:45;;;;;;;;;;;;;;;5.24;100.00;102144.63;5046041;28;19925;-79
2022/03/09 08:28:42;;;;;;;;;;;;;;;5.34;100.00;102142.81;5034888;28;20358;-78
2022/03/09 08:31:30;;;;;;;;;;;;;;;5.40;100.00;102148.50;5014267;28;19921;-77
2022/03/09 08:33:56;;;;;;;;;;;;;;;5.28;100.00;102144.06;5031077;28;20277;-78
2022/03/09 08:36:22;;;;;;;;;;;;;;;5.35;100.00;102139.41;5001894;28;19987;-79
2022/03/09 08:38:47;;;;;;;;;;;;;;;5.60;100.00;102133.47;5002703;28;19925;-78
2022/03/09 08:41:13;;;;;;;;;;;;;;;5.75;100.00;102137.25;5018278;28;20007;-78
2022/03/09 08:43:39;;;;;;;;;;;;;;;5.82;100.00;102135.13;5018256;28;19925;-80
2022/03/09 08:46:05;;;;;;;;;;;;;;;5.39;100.00;102133.66;5018506;28;20334;-79
2022/03/09 08:48:32;;;;;;;;;;;;;;;5.15;100.00;102134.34;5036299;28;20000;-78
2022/03/09 08:51:21;;;;;;;;;;;;;;;5.37;100.00;102132.59;5028076;28;19931;-79
2022/03/09 08:54:06;;;;;;;;;;;;;;;5.34;100.00;102134.97;5019406;28;20358;-78
2022/03/09 08:56:57;;;;;;;;;;;;;;;6.01;100.00;102134.81;5029545;28;19928;-80
2022/03/09 09:00:04;;;;;;;;;;;;;;;6.01;100.00;102138.38;5035245;28;20095;-79
2022/03/09 09:02:31;;;;;;;;;;;;;;;5.94;100.00;102136.94;5017260;28;19975;-78
2022/03/09 09:05:00;;;;;;;;;;;;;;;6.09;100.00;102139.84;5033900;28;20071;-80
2022/03/09 09:07:25;;;;;;;;;;;;;;;5.92;100.00;102132.41;5017700;28;19921;-82
2022/03/09 09:10:15;;;;;;;;;;;;;;;5.94;100.00;102122.97;5017730;28;20046;-80
2022/03/09 09:13:06;;;;;;;;;;;;;;;5.60;100.00;102119.50;4992921;28;20080;-79
2022/03/09 09:15:41;;;;;;;;;;;;;;;5.59;100.00;102121.19;4997627;28;19925;-81
2022/03/09 09:18:40;;;;;;;;;;;;;;;5.57;100.00;102121.06;5014714;28;19921;-79
2022/03/09 09:21:29;;;;;;;;;;;;;;;5.51;100.00;102127.53;5015435;28;19929;-78
2022/03/09 09:24:16;;;;;;;;;;;;;;;5.64;100.00;102127.72;5014075;28;19965;-79
2022/03/09 09:26:44;;;;;;;;;;;;;;;5.69;100.00;102130.66;5030749;28;20012;-79
2022/03/09 09:29:09;;;;;;;;;;;;;;;5.71;100.00;102127.34;5031364;28;19948;-78
2022/03/09 09:31:35;;;;;;;;;;;;;;;5.75;100.00;102125.91;5016965;28;19929;-79
2022/03/09 09:34:05;;;;;;;;;;;;;;;5.82;100.00;102129.88;5016882;28;19932;-79
2022/03/09 09:36:30;;;;;;;;;;;;;;;5.98;100.00;102135.53;5016755;28;20024;-78
2022/03/09 09:38:55;;;;;;;;;;;;;;;6.07;100.00;102133.56;5016093;28;19956;-79
2022/03/09 09:41:24;;;;;;;;;;;;;;;6.20;100.00;102139.72;5016518;28;20348;-78
2022/03/09 09:43:51;;;;;;;;;;;;;;;6.26;100.00;102141.09;5016754;28;19925;-78
2022/03/09 09:46:16;;;;;;;;;;;;;;;6.37;100.00;102131.44;5018241;28;19929;-79
2022/03/09 09:48:45;;;;;;;;;;;;;;;6.52;100.00;102130.72;5017244;28;19927;-78
2022/03/09 09:51:19;;;;;;;;;;;;;;;6.70;100.00;102131.16;4998550;28;19929;-79
2022/03/09 09:53:50;;;;;;;;;;;;;;;6.85;100.00;102120.84;4999002;28;19928;-79
2022/03/09 09:56:19;;;;;;;;;;;;;;;7.00;100.00;102120.22;5030984;28;20527;-80
2022/03/09 09:59:05;;;;;;;;;;;;;;;7.15;100.00;102124.75;4998210;28;19947;-80
2022/03/09 10:01:32;;;;;;;;;;;;;;;7.33;100.00;102126.03;5016463;28;19960;-79
2022/03/09 10:04:22;;;;;;;;;;;;;;;7.50;100.00;102118.41;5033932;28;19928;-79
2022/03/09 10:07:13;;;;;;;;;;;;;;;7.59;100.00;102119.03;5027699;28;19922;-79
2022/03/09 10:10:18;;;;;;;;;;;;;;;7.69;100.00;102118.88;4999027;28;19925;-79
2022/03/09 10:13:38;;;;;;;;;;;;;;;7.89;100.00;102122.84;5025261;28;19921;-79
2022/03/09 10:16:21;;;;;;;;;;;;;;;7.89;100.00;102122.84;5001142;28;19944;-79
2022/03/09 10:18:53;;;;;;;;;;;;;;;8.10;100.00;102127.72;5034058;28;19929;-81
2022/03/09 10:21:19;;;;;;;;;;;;;;;8.20;100.00;102130.16;5015999;28;19924;-79
2022/03/09 10:23:57;;;;;;;;;;;;;;;8.27;100.00;102129.72;5015999;28;19991;-80
2022/03/09 10:26:24;;;;;;;;;;;;;;;8.24;100.00;102132.13;5015644;28;19956;-79
2022/03/09 10:29:00;;;;;;;;;;;;;;;8.36;100.00;102126.81;5015466;28;19952;-79
2022/03/09 10:31:39;;;;;;;;;;;;;;;8.42;100.00;102134.16;5016059;28;19956;-79
2022/03/09 10:34:15;;;;;;;;;;;;;;;8.53;100.00;102132.25;5015163;28;19921;-80
2022/03/09 10:36:57;;;;;;;;;;;;;;;8.53;100.00;102134.88;5015867;28;19986;-81
2022/03/09 10:39:24;;;;;;;;;;;;;;;8.78;100.00;102142.66;5016085;28;19925;-80
2022/03/09 10:41:49;;;;;;;;;;;;;;;8.94;100.00;102145.41;5015766;28;19968;-80
2022/03/09 10:44:14;;;;;;;;;;;;;;;8.96;100.00;102149.06;5033899;28;19971;-80
2022/03/09 10:46:47;;;;;;;;;;;;;;;8.84;100.00;102149.97;5033515;28;19967;-81
2022/03/09 10:49:14;;;;;;;;;;;;;;;8.81;100.00;102148.09;5033017;28;19945;-79
2022/03/09 10:51:40;;;;;;;;;;;;;;;8.85;100.00;102144.81;5015550;28;19925;-80
2022/03/09 10:54:35;;;;;;;;;;;;;;;9.03;100.00;102139.84;5015245;28;19921;-80
2022/03/09 10:57:06;;;;;;;;;;;;;;;9.18;100.00;102145.13;5013504;28;19925;-79
2022/03/09 10:59:45;;;;;;;;;;;;;;;9.12;100.00;102144.75;5019788;28;19921;-80
2022/03/09 11:02:10;;;;;;;;;;;;;;;9.31;100.00;102137.22;5019571;28;20269;-81
2022/03/09 11:04:36;;;;;;;;;;;;;;;9.34;100.00;102153.16;5019025;28;19925;-79
2022/03/09 11:07:01;;;;;;;;;;;;;;;9.30;100.00;102142.38;5018651;28;19917;-79
2022/03/09 11:09:26;;;;;;;;;;;;;;;9.50;100.00;102144.50;5018509;28;19929;-79
2022/03/09 11:11:53;;;;;;;;;;;;;;;9.58;100.00;102142.31;5018345;28;19924;-79
2022/03/09 11:14:19;;;;;;;;;;;;;;;9.76;100.00;102141.66;5017650;28;19921;-80
2022/03/09 11:16:46;;;;;;;;;;;;;;;9.81;100.00;102137.56;5017415;28;20437;-80
2022/03/09 11:19:12;;;;;;;;;;;;;;;9.90;100.00;102130.22;5035881;28;20003;-80
2022/03/09 11:21:38;;;;;;;;;;;;;;;9.90;100.00;102130.22;5018050;28;20376;-80
2022/03/09 11:24:14;;;;;;;;;;;;;;;10.17;100.00;102130.91;5016865;28;19921;-81
2022/03/09 11:26:50;;;;;;;;;;;;;;;10.13;100.00;102134.19;5017955;28;19929;-78
2022/03/09 11:29:16;;;;;;;;;;;;;;;10.05;100.00;102125.84;5016637;28;20028;-78
2022/03/09 11:31:51;;;;;;;;;;;;;;;10.38;100.00;102126.00;5017153;28;20269;-80
2022/03/09 11:34:36;;;;;;;;;;;;;;;10.31;100.00;102123.81;5017603;28;20324;-79
2022/03/09 11:37:03;;;;;;;;;;;;;;;10.27;100.00;102121.84;5016428;28;19971;-79
2022/03/09 11:39:28;;;;;;;;;;;;;;;10.44;100.00;102124.53;5035183;28;20281;-81
2022/03/09 11:42:20;;;;;;;;;;;;;;;10.50;100.00;102122.25;5017059;28;19921;-80
2022/03/09 11:44:46;;;;;;;;;;;;;;;10.49;100.00;102124.00;5031088;28;19948;-80
2022/03/09 11:47:11;;;;;;;;;;;;;;;10.47;100.00;102122.09;5017847;28;19996;-80
2022/03/09 11:49:43;;;;;;;;;;;;;;;10.67;100.00;102115.31;5018207;28;19927;-80
2022/03/09 11:52:13;;;;;;;;;;;;;;;10.72;100.00;102111.19;5017050;28;19921;-79
2022/03/09 11:54:49;;;;;;;;;;;;;;;10.57;100.00;102116.53;5017847;28;19986;-79
2022/03/09 11:57:15;;;;;;;;;;;;;;;10.75;100.00;102109.66;5017603;28;19921;-78
2022/03/09 12:00:00;;;;;;;;;;;;;;;10.75;100.00;102111.34;5035015;28;19921;-79
2022/03/09 12:02:39;;;;;;;;;;;;;;;10.95;100.00;102109.81;5017169;28;19920;-80
2022/03/09 12:05:04;;;;;;;;;;;;;;;11.12;100.00;102114.31;5017125;28;20358;-79
2022/03/09 12:07:30;;;;;;;;;;;;;;;11.15;100.00;102113.53;5017471;28;19921;-79
2022/03/09 12:09:57;;;;;;;;;;;;;;;11.11;100.00;102116.84;5034685;28;19921;-80
2022/03/09 12:12:23;;;;;;;;;;;;;;;11.10;100.00;102110.66;5016593;28;19929;-79
2022/03/09 12:15:06;;;;;;;;;;;;;;;11.27;100.00;102105.38;5000556;28;22015;-79
2022/03/09 12:17:31;;;;;;;;;;;;;;;11.25;100.00;102112.31;5016853;28;19991;-79
2022/03/09 12:20:16;;;;;;;;;;;;;;;11.44;100.00;102109.81;5016489;28;20358;-79
2022/03/09 12:23:01;;;;;;;;;;;;;;;11.42;100.00;102107.91;5016987;28;19920;-80
2022/03/09 12:25:44;;;;;;;;;;;;;;;11.58;100.00;102094.72;5017405;28;19928;-79
2022/03/09 12:28:25;;;;;;;;;;;;;;;11.53;100.00;102090.94;5016961;28;19925;-79
2022/03/09 12:30:58;;;;;;;;;;;;;;;11.54;100.00;102089.19;5017154;28;20378;-79
2022/03/09 12:33:25;;;;;;;;;;;;;;;11.56;100.00;102088.47;5016369;28;19921;-80
2022/03/09 12:36:19;;;;;;;;;;;;;;;11.71;100.00;102088.31;5030469;28;19921;-80
2022/03/09 12:39:05;;;;;;;;;;;;;;;11.72;100.00;102086.63;5024266;28;20770;-79
2022/03/09 12:42:05;;;;;;;;;;;;;;;11.65;100.00;102077.44;5030356;28;19968;-80
2022/03/09 12:45:10;;;;;;;;;;;;;;;11.76;100.00;102083.28;5030957;28;19990;-79
2022/03/09 12:48:07;;;;;;;;;;;;;;;11.72;100.00;102081.34;5019175;28;19927;-79
2022/03/09 12:50:42;;;;;;;;;;;;;;;11.80;100.00;102091.44;5016938;28;19921;-80
2022/03/09 12:53:38;;;;;;;;;;;;;;;11.85;100.00;102092.59;5034350;28;19921;-80
2022/03/09 12:56:41;;;;;;;;;;;;;;;11.85;100.00;102095.22;5030760;28;19917;-81
2022/03/09 12:59:33;;;;;;;;;;;;;;;11.97;100.00;102096.69;5005117;28;19960;-80
2022/03/09 13:02:26;;;;;;;;;;;;;;;12.05;100.00;102090.06;5032736;28;19927;-81
2022/03/09 13:04:58;;;;;;;;;;;;;;;12.13;100.00;102085.16;5034138;28;19925;-80